createdAt,value
2022-08-11T00:00:14.246Z,97608.91
2022-08-11T00:04:12.950Z,97615.19
2022-08-11T00:08:11.945Z,97616.41
2022-08-11T00:12:18.254Z,97606.75
2022-08-11T00:16:22.960Z,97612.59
2022-08-11T00:20:20.678Z,97581.69
2022-08-11T00:24:19.024Z,97590.81
2022-08-11T00:28:32.011Z,97608.28
2022-08-11T00:32:31.080Z,97610.72
2022-08-11T00:36:46.689Z,97608.38
2022-08-11T00:40:56.935Z,97607.09
2022-08-11T00:45:17.998Z,97611.31
2022-08-11T00:49:38.607Z,97611.47
2022-08-11T00:53:59.889Z,97610.13
2022-08-11T00:58:22.622Z,97602.28
2022-08-11T01:02:47.609Z,97612.88
2022-08-11T01:07:00.436Z,97603.69
2022-08-11T01:11:27.477Z,97612.66
2022-08-11T01:15:57.038Z,97620.41
2022-08-11T01:20:47.556Z,97609.19
2022-08-11T01:25:23.335Z,97605.53
2022-08-11T01:29:57.407Z,97611.00
2022-08-11T01:34:45.470Z,97615.38
2022-08-11T01:39:26.554Z,97611.78
2022-08-11T01:44:27.982Z,97593.66
2022-08-11T01:48:42.855Z,97571.81
2022-08-11T01:53:02.454Z,97615.66
2022-08-11T01:57:34.200Z,97614.59
2022-08-11T02:01:58.445Z,97608.22
2022-08-11T02:06:55.366Z,97605.47
2022-08-11T02:11:34.471Z,97604.56
2022-08-11T02:15:47.533Z,97595.97
2022-08-11T02:20:52.187Z,97601.91
2022-08-11T02:25:13.264Z,97572.16
2022-08-11T02:29:32.758Z,97595.41
2022-08-11T02:33:36.901Z,97591.59
2022-08-11T02:37:33.857Z,97594.97
2022-08-11T02:42:32.892Z,97594.03
2022-08-11T02:47:02.990Z,97597.88
2022-08-11T02:51:22.082Z,97599.16
2022-08-11T02:56:37.566Z,97601.03
2022-08-11T03:00:53.890Z,97590.69
2022-08-11T03:05:23.432Z,97594.41
2022-08-11T03:09:38.565Z,97596.13
2022-08-11T03:14:23.315Z,97581.13
2022-08-11T03:19:25.902Z,97601.50
2022-08-11T03:24:01.696Z,97593.06
2022-08-11T03:28:22.105Z,97597.94
2022-08-11T03:32:29.239Z,97602.19
2022-08-11T03:37:17.895Z,97603.72
2022-08-11T03:42:02.265Z,97588.31
2022-08-11T03:46:17.163Z,97594.47
2022-08-11T03:50:48.927Z,97579.63
2022-08-11T03:55:23.896Z,97600.13
2022-08-11T04:00:03.935Z,97600.94
2022-08-11T04:04:51.320Z,97596.53
2022-08-11T04:09:11.076Z,97603.47
2022-08-11T04:14:16.823Z,97567.38
2022-08-11T04:18:50.684Z,97597.69
2022-08-11T04:24:35.793Z,97596.09
2022-08-11T04:28:55.604Z,97598.41
2022-08-11T04:33:22.818Z,97601.19
2022-08-11T04:37:42.456Z,97614.94
2022-08-11T04:42:55.776Z,97590.28
2022-08-11T04:48:03.542Z,97606.47
2022-08-11T04:53:15.408Z,97577.78
2022-08-11T04:58:22.234Z,97625.00
2022-08-11T05:02:48.937Z,97625.91
2022-08-11T05:07:25.961Z,97616.13
2022-08-11T05:12:02.538Z,97571.75
2022-08-11T05:16:29.011Z,97604.91
2022-08-11T05:20:46.465Z,97608.16
2022-08-11T05:25:11.002Z,97606.47
2022-08-11T05:30:00.401Z,97628.50
2022-08-11T05:34:21.562Z,97618.06
2022-08-11T05:38:45.467Z,97622.31
2022-08-11T05:43:25.875Z,97602.31
2022-08-11T05:47:44.946Z,97614.13
2022-08-11T05:52:05.380Z,97634.63
2022-08-11T05:56:20.937Z,97617.19
2022-08-11T06:00:20.191Z,97610.66
2022-08-11T06:04:29.189Z,97634.72
2022-08-11T06:08:36.249Z,97621.06
2022-08-11T06:12:37.613Z,97639.44
2022-08-11T06:16:35.788Z,97630.03
2022-08-11T06:20:37.647Z,97623.31
2022-08-11T06:24:39.134Z,97623.50
2022-08-11T06:28:41.612Z,97630.41
2022-08-11T06:32:41.874Z,97627.06
2022-08-11T06:37:07.320Z,97599.69
2022-08-11T06:41:31.943Z,97624.72
2022-08-11T06:46:06.142Z,97615.63
2022-08-11T06:50:25.261Z,97612.41
2022-08-11T06:54:23.883Z,97613.50
2022-08-11T06:58:41.869Z,97608.41
2022-08-11T07:02:55.137Z,97601.41
2022-08-11T07:07:37.594Z,97616.97
2022-08-11T07:12:34.936Z,97605.06
2022-08-11T07:16:36.478Z,97611.97
2022-08-11T07:20:56.463Z,97587.72
2022-08-11T07:25:33.815Z,97599.34
2022-08-11T07:29:33.087Z,97569.69
2022-08-11T07:34:07.127Z,97571.63
2022-08-11T07:38:15.589Z,97589.38
2022-08-11T07:42:22.246Z,97595.16
2022-08-11T07:46:40.093Z,97565.69
2022-08-11T07:51:01.604Z,97573.66
2022-08-11T07:55:05.066Z,97577.81
2022-08-11T07:59:22.892Z,97588.25
2022-08-11T08:04:02.122Z,97587.38
2022-08-11T08:08:18.315Z,97583.47
2022-08-11T08:12:35.302Z,97569.63
2022-08-11T08:16:51.732Z,97584.63
2022-08-11T08:20:51.031Z,97559.69
2022-08-11T08:24:49.188Z,97570.22
2022-08-11T08:28:46.722Z,97556.50
2022-08-11T08:32:45.025Z,97548.03
2022-08-11T08:36:52.394Z,97586.56
2022-08-11T08:40:56.221Z,97546.34
2022-08-11T08:45:16.458Z,97568.72
2022-08-11T08:49:29.728Z,97567.38
2022-08-11T08:53:32.944Z,97553.75
2022-08-11T08:57:39.419Z,97527.31
2022-08-11T09:01:54.379Z,97566.19
2022-08-11T09:05:56.128Z,97558.88
2022-08-11T09:09:58.190Z,97554.38
2022-08-11T09:14:05.737Z,97529.13
2022-08-11T09:18:09.410Z,97544.97
2022-08-11T09:22:27.159Z,97521.28
2022-08-11T09:26:43.398Z,97533.00
2022-08-11T09:30:55.225Z,97517.66
2022-08-11T09:34:54.076Z,97514.97
2022-08-11T09:39:12.498Z,97524.94
2022-08-11T09:43:32.034Z,97519.66
2022-08-11T09:47:30.640Z,97520.34
2022-08-11T09:51:34.207Z,97516.09
2022-08-11T09:55:33.393Z,97510.09
2022-08-11T09:59:32.209Z,97497.88
2022-08-11T10:03:33.012Z,97479.78
2022-08-11T10:07:30.224Z,97488.91
2022-08-11T10:11:29.206Z,97481.00
2022-08-11T10:15:38.466Z,97480.38
2022-08-11T10:19:38.032Z,97486.69
2022-08-11T10:24:00.178Z,97483.25
2022-08-11T10:28:30.558Z,97467.94
2022-08-11T10:32:58.395Z,97463.44
2022-08-11T10:37:03.237Z,97474.44
2022-08-11T10:41:20.650Z,97455.91
2022-08-11T10:45:38.323Z,97474.69
2022-08-11T10:49:35.946Z,97457.50
2022-08-11T10:53:53.896Z,97447.63
2022-08-11T10:58:09.403Z,97414.16
2022-08-11T11:02:06.712Z,97460.88
2022-08-11T11:06:28.964Z,97464.88
2022-08-11T11:10:26.910Z,97460.41
2022-08-11T11:14:55.000Z,97446.13
2022-08-11T11:19:02.876Z,97445.72
2022-08-11T11:23:10.296Z,97432.13
2022-08-11T11:27:32.013Z,97446.94
2022-08-11T11:31:59.208Z,97449.53
2022-08-11T11:36:23.908Z,97415.78
2022-08-11T11:40:31.443Z,97426.88
2022-08-11T11:44:31.031Z,97423.91
2022-08-11T11:48:29.112Z,97415.53
2022-08-11T11:52:27.356Z,97417.50
2022-08-11T11:56:26.110Z,97381.94
2022-08-11T12:00:44.498Z,97419.09
2022-08-11T12:04:44.396Z,97404.19
2022-08-11T12:08:43.688Z,97421.41
2022-08-11T12:13:00.592Z,97416.66
2022-08-11T12:16:59.386Z,97397.72
2022-08-11T12:20:56.632Z,97405.13
2022-08-11T12:25:15.475Z,97392.75
2022-08-11T12:29:22.615Z,97385.34
2022-08-11T12:33:24.082Z,97381.06
2022-08-11T12:37:30.320Z,97382.78
2022-08-11T12:41:46.698Z,97383.56
2022-08-11T12:45:46.132Z,97366.56
2022-08-11T12:50:23.194Z,97373.44
2022-08-11T12:54:41.547Z,97362.97
2022-08-11T12:58:42.972Z,97373.16
2022-08-11T13:03:00.395Z,97344.38
2022-08-11T13:06:57.495Z,97353.81
2022-08-11T13:11:16.980Z,97355.38
2022-08-11T13:15:24.783Z,97352.56
2022-08-11T13:19:24.112Z,97320.31
2022-08-11T13:23:24.778Z,97344.63
2022-08-11T13:27:24.780Z,97342.03
2022-08-11T13:31:22.161Z,97345.25
2022-08-11T13:35:22.217Z,97325.69
2022-08-11T13:39:24.133Z,97325.75
2022-08-11T13:43:23.613Z,97331.00
2022-08-11T13:47:23.721Z,97323.88
2022-08-11T13:51:34.738Z,97324.19
2022-08-11T13:55:45.076Z,97303.44
2022-08-11T13:59:56.214Z,97310.91
2022-08-11T14:04:30.551Z,97296.91
2022-08-11T14:08:37.470Z,97302.97
2022-08-11T14:12:58.477Z,97302.19
2022-08-11T14:16:57.486Z,97285.63
2022-08-11T14:21:18.145Z,97286.31
2022-08-11T14:25:16.953Z,97292.44
2022-08-11T14:33:20.430Z,97270.97
2022-08-11T14:37:25.704Z,97278.94
2022-08-11T14:42:10.767Z,97273.78
2022-08-11T14:46:19.641Z,97278.34
2022-08-11T14:50:24.237Z,97256.38
2022-08-11T14:54:50.538Z,97272.09
2022-08-11T14:58:47.745Z,97272.00
2022-08-11T15:03:07.116Z,97254.97
2022-08-11T15:07:04.884Z,97271.84
2022-08-11T15:11:36.741Z,97238.38
2022-08-11T15:15:53.766Z,97257.00
2022-08-11T15:20:11.241Z,97224.59
2022-08-11T15:24:31.029Z,97240.06
2022-08-11T15:28:53.425Z,97240.09
2022-08-11T15:33:11.532Z,97224.25
2022-08-11T15:37:26.995Z,97246.53
2022-08-11T15:42:20.508Z,97238.84
2022-08-11T15:46:33.714Z,97248.00
2022-08-11T15:50:38.826Z,97224.00
2022-08-11T15:54:42.294Z,97226.75
2022-08-11T15:59:40.897Z,97231.00
2022-08-11T16:04:06.559Z,97221.06
2022-08-11T16:08:04.398Z,97214.81
2022-08-11T16:12:08.130Z,97217.47
2022-08-11T16:16:17.440Z,97220.72
2022-08-11T16:20:20.920Z,97215.69
2022-08-11T16:27:04.287Z,97185.00
2022-08-11T16:28:44.285Z,97197.13
2022-08-11T16:32:45.875Z,97203.78
2022-08-11T16:37:01.404Z,97213.09
2022-08-11T16:41:02.540Z,97208.66
2022-08-11T16:45:19.477Z,97196.34
2022-08-11T16:49:25.058Z,97203.69
2022-08-11T16:53:22.423Z,97195.16
2022-08-11T16:58:00.321Z,97199.31
2022-08-11T17:02:05.036Z,97190.84
2022-08-11T17:06:24.306Z,97208.84
2022-08-11T17:10:56.672Z,97212.25
2022-08-11T17:15:00.920Z,97215.03
2022-08-11T17:19:13.818Z,97213.31
2022-08-11T17:23:30.412Z,97188.59
2022-08-11T17:27:31.313Z,97192.78
2022-08-11T17:31:48.953Z,97208.44
2022-08-11T17:35:46.138Z,97208.53
2022-08-11T17:39:45.989Z,97203.84
2022-08-11T17:44:03.656Z,97203.09
2022-08-11T17:48:21.784Z,97183.25
2022-08-11T17:52:39.246Z,97195.06
2022-08-11T17:56:55.433Z,97185.84
2022-08-11T18:00:56.302Z,97199.19
2022-08-11T18:04:55.907Z,97162.41
2022-08-11T18:09:13.741Z,97212.19
2022-08-11T18:13:31.002Z,97182.03
2022-08-11T18:17:46.502Z,97221.31
2022-08-11T18:22:15.583Z,97241.09
2022-08-11T18:26:37.773Z,97236.72
2022-08-11T18:31:03.119Z,97225.06
2022-08-11T18:35:23.627Z,97262.25
2022-08-11T18:39:41.965Z,97252.75
2022-08-11T18:44:03.936Z,97238.63
2022-08-11T18:48:34.223Z,97268.69
2022-08-11T18:52:54.395Z,97214.81
2022-08-11T18:57:12.987Z,97272.47
2022-08-11T19:01:34.379Z,97277.16
2022-08-11T19:06:32.565Z,97272.22
2022-08-11T19:10:34.975Z,97275.25
2022-08-11T19:14:53.783Z,97286.94
2022-08-11T19:19:11.337Z,97297.09
2022-08-11T19:23:31.038Z,97291.22
2022-08-11T19:27:48.807Z,97305.63
2022-08-11T19:32:06.260Z,97304.09
2022-08-11T19:36:22.244Z,97314.88
2022-08-11T19:40:39.757Z,97320.31
2022-08-11T19:44:56.165Z,97315.34
2022-08-11T19:49:15.962Z,97328.41
2022-08-11T19:53:32.391Z,97307.97
2022-08-11T19:57:50.978Z,97330.13
2022-08-11T20:02:14.245Z,97297.66
2022-08-11T20:06:32.613Z,97338.34
2022-08-11T20:10:51.933Z,97330.75
2022-08-11T20:15:11.073Z,97344.88
2022-08-11T20:19:55.137Z,97343.91
2022-08-11T20:24:07.004Z,97351.38
2022-08-11T20:28:25.427Z,97352.28
2022-08-11T20:32:43.108Z,97361.88
2022-08-11T20:37:01.210Z,97325.59
2022-08-11T20:41:19.964Z,97359.41
2022-08-11T20:45:37.036Z,97364.41
2022-08-11T20:50:11.080Z,97352.66
2022-08-11T20:54:38.232Z,97354.06
2022-08-11T20:59:18.289Z,97362.41
2022-08-11T21:03:44.559Z,97353.03
2022-08-11T21:08:08.481Z,97358.78
2022-08-11T21:12:29.777Z,97359.59
2022-08-11T21:16:56.178Z,97356.47
2022-08-11T21:21:16.418Z,97362.44
2022-08-11T21:25:38.062Z,97369.75
2022-08-11T21:29:57.059Z,97372.16
2022-08-11T21:34:14.585Z,97386.97
2022-08-11T21:38:32.927Z,97384.84
2022-08-11T21:42:55.421Z,97356.97
2022-08-11T21:47:15.583Z,97382.22
2022-08-11T21:51:32.880Z,97358.09
2022-08-11T21:55:49.743Z,97360.78
2022-08-11T22:00:16.569Z,97375.53
2022-08-11T22:04:35.825Z,97373.16
2022-08-11T22:08:53.024Z,97380.66
2022-08-11T22:13:10.573Z,97370.19
2022-08-11T22:17:25.969Z,97368.81
2022-08-11T22:21:56.976Z,97383.84
2022-08-11T22:26:20.893Z,97376.34
2022-08-11T22:30:38.002Z,97367.72
2022-08-11T22:34:53.983Z,97339.03
2022-08-11T22:39:11.016Z,97361.31
2022-08-11T22:43:26.655Z,97311.63
2022-08-11T22:47:44.936Z,97371.72
2022-08-11T22:52:02.944Z,97374.63
2022-08-11T22:56:18.862Z,97372.47
2022-08-11T23:00:48.704Z,97355.81
2022-08-11T23:05:06.134Z,97360.84
2022-08-11T23:09:24.620Z,97363.50
2022-08-11T23:13:41.461Z,97362.69
2022-08-11T23:17:57.541Z,97336.31
2022-08-11T23:22:13.780Z,97364.22
2022-08-11T23:26:30.927Z,97367.63
2022-08-11T23:30:48.053Z,97374.28
2022-08-11T23:35:40.216Z,97373.69
2022-08-11T23:39:45.904Z,97356.41
2022-08-11T23:44:03.585Z,97341.66
2022-08-11T23:48:21.784Z,97360.72
2022-08-11T23:52:38.901Z,97347.16
2022-08-11T23:56:55.049Z,97343.13
